createdAt,value
2024-01-27T00:00:47.655Z,-0.51
2024-01-27T00:03:21.347Z,-0.48
2024-01-27T00:05:56.537Z,-0.51
2024-01-27T00:08:30.582Z,-0.46
2024-01-27T00:11:04.266Z,-0.58
2024-01-27T00:13:37.939Z,-0.88
2024-01-27T00:16:11.709Z,-0.90
2024-01-27T00:18:45.523Z,-0.75
2024-01-27T00:21:20.650Z,-0.80
2024-01-27T00:23:55.099Z,-0.71
2024-01-27T00:26:29.098Z,-0.71
2024-01-27T00:29:02.951Z,-0.79
2024-01-27T00:31:36.692Z,-0.74
2024-01-27T00:34:10.620Z,-0.67
2024-01-27T00:36:49.788Z,-0.65
2024-01-27T00:39:23.919Z,-0.58
2024-01-27T00:41:59.456Z,-0.88
2024-01-27T00:44:33.212Z,-1.00
2024-01-27T00:47:06.914Z,-1.03
2024-01-27T00:49:40.732Z,-1.14
2024-01-27T00:52:16.080Z,-1.10
2024-01-27T00:54:49.740Z,-1.02
2024-01-27T00:57:23.533Z,-0.94
2024-01-27T00:59:57.361Z,-0.88
2024-01-27T01:02:31.071Z,-0.84
2024-01-27T01:05:05.368Z,-1.09
2024-01-27T01:07:40.397Z,-1.03
2024-01-27T01:10:14.106Z,-1.10
2024-01-27T01:12:47.837Z,-1.00
2024-01-27T01:15:21.571Z,-0.86
2024-01-27T01:17:55.331Z,-0.92
2024-01-27T01:20:29.105Z,-0.86
2024-01-27T01:23:04.135Z,-0.77
2024-01-27T01:25:37.852Z,-0.77
2024-01-27T01:28:11.644Z,-0.70
2024-01-27T01:30:45.299Z,-0.67
2024-01-27T01:33:19.217Z,-0.61
2024-01-27T01:35:53.254Z,-0.61
2024-01-27T01:38:28.304Z,-0.76
2024-01-27T01:41:02.308Z,-0.72
2024-01-27T01:43:35.949Z,-0.69
2024-01-27T01:46:10.176Z,-0.77
2024-01-27T01:48:44.565Z,-0.73
2024-01-27T01:51:18.654Z,-0.69
2024-01-27T01:53:57.191Z,-0.71
2024-01-27T01:56:31.080Z,-0.64
2024-01-27T01:59:04.851Z,-0.71
2024-01-27T02:01:38.782Z,-0.59
2024-01-27T02:04:12.490Z,-0.60
2024-01-27T02:06:46.265Z,-0.68
2024-01-27T02:09:21.431Z,-0.79
2024-01-27T02:11:55.442Z,-0.75
2024-01-27T02:14:29.180Z,-0.74
2024-01-27T02:17:03.490Z,-0.87
2024-01-27T02:19:37.801Z,-0.62
2024-01-27T02:22:11.719Z,-0.58
2024-01-27T02:24:47.743Z,-0.48
2024-01-27T02:27:21.547Z,-0.39
2024-01-27T02:29:55.268Z,-0.34
2024-01-27T02:32:28.961Z,-0.37
2024-01-27T02:35:03.819Z,-0.24
2024-01-27T02:37:37.557Z,-0.18
2024-01-27T02:40:13.337Z,-0.10
2024-01-27T02:42:47.105Z,-0.01
2024-01-27T02:45:21.292Z,-0.12
2024-01-27T02:47:55.295Z,0.02
2024-01-27T02:50:29.416Z,0.09
2024-01-27T02:53:03.314Z,0.13
2024-01-27T02:55:38.355Z,0.18
2024-01-27T02:58:12.022Z,0.19
2024-01-27T03:00:45.735Z,0.07
2024-01-27T03:03:19.565Z,0.17
2024-01-27T03:05:53.494Z,0.24
2024-01-27T03:08:27.227Z,0.28
2024-01-27T03:11:02.345Z,0.16
2024-01-27T03:13:36.050Z,0.23
2024-01-27T03:16:11.393Z,0.31
2024-01-27T03:18:45.117Z,0.32
2024-01-27T03:21:18.983Z,0.40
2024-01-27T03:23:52.728Z,0.48
2024-01-27T03:26:27.816Z,0.42
2024-01-27T03:29:02.113Z,0.48
2024-01-27T03:31:36.672Z,0.52
2024-01-27T03:34:10.809Z,0.51
2024-01-27T03:36:45.137Z,0.53
2024-01-27T03:39:19.042Z,0.54
2024-01-27T03:41:54.153Z,0.61
2024-01-27T03:44:27.803Z,0.62
2024-01-27T03:47:01.711Z,0.60
2024-01-27T03:49:35.805Z,0.48
2024-01-27T03:52:09.649Z,0.36
2024-01-27T03:54:43.323Z,0.30
2024-01-27T03:57:18.591Z,0.24
2024-01-27T03:59:52.308Z,0.18
2024-01-27T04:02:25.971Z,0.11
2024-01-27T04:04:59.703Z,0.09
2024-01-27T04:07:33.352Z,0.13
2024-01-27T04:10:07.880Z,0.12
2024-01-27T04:12:45.193Z,0.07
2024-01-27T04:15:18.992Z,0.11
2024-01-27T04:17:53.010Z,0.10
2024-01-27T04:20:26.833Z,0.10
2024-01-27T04:23:00.961Z,0.07
2024-01-27T04:25:34.698Z,0.09
2024-01-27T04:28:11.922Z,0.10
2024-01-27T04:30:45.647Z,0.16
2024-01-27T04:33:19.545Z,0.20
2024-01-27T04:35:53.800Z,0.20
2024-01-27T04:38:27.484Z,0.18
2024-01-27T04:41:01.153Z,0.22
2024-01-27T04:43:36.578Z,0.10
2024-01-27T04:46:10.762Z,0.15
2024-01-27T04:48:44.991Z,0.18
2024-01-27T04:51:18.748Z,0.07
2024-01-27T04:53:52.807Z,0.17
2024-01-27T04:56:26.831Z,0.15
2024-01-27T04:59:01.933Z,0.22
2024-01-27T05:01:35.782Z,0.21
2024-01-27T05:04:09.644Z,0.23
2024-01-27T05:06:46.268Z,0.22
2024-01-27T05:09:20.030Z,0.32
2024-01-27T05:11:54.707Z,0.33
2024-01-27T05:14:29.802Z,0.29
2024-01-27T05:17:03.437Z,0.30
2024-01-27T05:19:37.129Z,0.18
2024-01-27T05:22:10.781Z,0.19
2024-01-27T05:24:45.001Z,0.23
2024-01-27T05:27:18.882Z,0.34
2024-01-27T05:29:53.954Z,0.34
2024-01-27T05:32:27.653Z,0.33
2024-01-27T05:35:01.991Z,0.35
2024-01-27T05:37:35.778Z,0.44
2024-01-27T05:40:10.564Z,0.39
2024-01-27T05:42:46.134Z,0.45
2024-01-27T05:45:21.551Z,0.45
2024-01-27T05:47:55.374Z,0.45
2024-01-27T05:50:31.414Z,0.51
2024-01-27T05:53:05.416Z,0.60
2024-01-27T05:55:39.081Z,0.61
2024-01-27T05:58:12.763Z,0.57
2024-01-27T06:00:48.086Z,0.51
2024-01-27T06:03:22.025Z,0.53
2024-01-27T06:05:55.820Z,0.58
2024-01-27T06:08:29.506Z,0.68
2024-01-27T06:11:06.104Z,0.71
2024-01-27T06:13:42.218Z,0.73
2024-01-27T06:16:17.238Z,0.81
2024-01-27T06:18:51.001Z,0.64
2024-01-27T06:21:24.777Z,0.59
2024-01-27T06:23:58.469Z,0.66
2024-01-27T06:26:32.153Z,0.78
2024-01-27T06:29:05.855Z,0.74
2024-01-27T06:31:40.877Z,0.81
2024-01-27T06:34:14.756Z,0.83
2024-01-27T06:36:48.520Z,0.63
2024-01-27T06:39:22.862Z,0.69
2024-01-27T06:41:56.579Z,0.77
2024-01-27T06:44:30.443Z,0.84
2024-01-27T06:47:05.855Z,0.90
2024-01-27T06:49:40.098Z,0.97
2024-01-27T06:52:13.935Z,0.71
2024-01-27T06:54:47.583Z,0.59
2024-01-27T06:57:22.240Z,0.74
2024-01-27T06:59:57.168Z,0.81
2024-01-27T07:02:32.415Z,0.85
2024-01-27T07:05:06.942Z,0.92
2024-01-27T07:07:40.640Z,0.90
2024-01-27T07:10:14.357Z,0.89
2024-01-27T07:12:48.030Z,0.92
2024-01-27T07:15:22.853Z,0.99
2024-01-27T07:17:58.124Z,1.09
2024-01-27T07:20:31.873Z,1.17
2024-01-27T07:23:05.897Z,1.20
2024-01-27T07:25:39.560Z,1.26
2024-01-27T07:28:13.291Z,1.34
2024-01-27T07:30:47.730Z,1.27
2024-01-27T07:33:23.294Z,1.39
2024-01-27T07:35:57.804Z,1.37
2024-01-27T07:39:56.713Z,1.39
2024-01-27T07:42:31.018Z,1.55
2024-01-27T07:45:06.452Z,1.58
2024-01-27T07:47:40.422Z,1.45
2024-01-27T07:50:16.234Z,1.40
2024-01-27T07:52:49.983Z,1.54
2024-01-27T07:55:23.817Z,1.63
2024-01-27T07:57:57.824Z,1.72
2024-01-27T08:00:32.609Z,1.80
2024-01-27T08:03:07.177Z,1.82
2024-01-27T08:05:42.295Z,1.77
2024-01-27T08:08:15.941Z,1.77
2024-01-27T08:10:49.660Z,1.88
2024-01-27T08:13:23.366Z,1.79
2024-01-27T08:15:57.114Z,1.60
2024-01-27T08:18:30.936Z,1.72
2024-01-27T08:21:06.637Z,1.82
2024-01-27T08:23:41.062Z,1.77
2024-01-27T08:26:14.840Z,1.85
2024-01-27T08:28:48.631Z,1.94
2024-01-27T08:31:22.344Z,1.87
2024-01-27T08:33:56.107Z,1.81
2024-01-27T08:36:31.240Z,1.91
2024-01-27T08:39:05.598Z,1.81
2024-01-27T08:41:39.245Z,1.74
2024-01-27T08:44:13.040Z,1.65
2024-01-27T08:46:46.741Z,1.64
2024-01-27T08:49:20.679Z,1.78
2024-01-27T08:51:56.525Z,1.74
2024-01-27T08:54:30.317Z,1.93
2024-01-27T08:57:04.463Z,1.93
2024-01-27T08:59:39.054Z,1.76
2024-01-27T09:02:12.854Z,1.68
2024-01-27T09:04:46.582Z,1.73
2024-01-27T09:07:21.766Z,1.80
2024-01-27T09:09:55.447Z,1.85
2024-01-27T09:12:29.303Z,1.67
2024-01-27T09:15:04.026Z,1.84
2024-01-27T09:17:38.303Z,1.89
2024-01-27T09:20:13.456Z,1.85
2024-01-27T09:22:50.841Z,1.77
2024-01-27T09:25:25.697Z,1.82
2024-01-27T09:28:01.958Z,1.96
2024-01-27T09:30:39.641Z,1.89
2024-01-27T09:33:14.584Z,1.82
2024-01-27T09:35:48.989Z,1.80
2024-01-27T09:38:24.380Z,1.84
2024-01-27T09:40:58.555Z,1.86
2024-01-27T09:43:33.373Z,1.76
2024-01-27T09:46:07.461Z,1.74
2024-01-27T09:48:42.059Z,1.77
2024-01-27T09:51:15.936Z,1.70
2024-01-27T09:53:52.514Z,1.66
2024-01-27T09:56:27.288Z,1.74
2024-01-27T09:59:01.996Z,1.53
2024-01-27T10:01:38.112Z,1.51
2024-01-27T10:04:12.130Z,1.41
2024-01-27T10:06:47.554Z,1.49
2024-01-27T10:09:22.990Z,1.50
2024-01-27T10:11:58.954Z,1.68
2024-01-27T10:14:41.275Z,1.58
2024-01-27T10:17:15.359Z,1.60
2024-01-27T10:19:49.401Z,1.70
2024-01-27T10:22:23.160Z,1.69
2024-01-27T10:24:58.185Z,1.75
2024-01-27T10:27:31.967Z,1.75
2024-01-27T10:30:08.649Z,1.72
2024-01-27T10:32:42.493Z,1.63
2024-01-27T10:35:16.647Z,1.66
2024-01-27T10:37:57.578Z,1.72
2024-01-27T10:40:34.680Z,1.72
2024-01-27T10:43:09.879Z,1.75
2024-01-27T10:45:44.135Z,1.72
2024-01-27T10:48:18.328Z,1.78
2024-01-27T10:50:53.153Z,1.89
2024-01-27T10:53:28.667Z,1.96
2024-01-27T10:56:10.728Z,2.01
2024-01-27T10:58:48.951Z,1.93
2024-01-27T11:01:25.512Z,1.98
2024-01-27T11:04:01.905Z,1.95
2024-01-27T11:06:38.197Z,1.95
2024-01-27T11:09:14.155Z,1.71
2024-01-27T11:11:50.454Z,1.94
2024-01-27T11:14:24.519Z,2.02
2024-01-27T11:17:02.237Z,1.95
2024-01-27T11:19:36.861Z,1.95
2024-01-27T11:22:27.291Z,1.98
2024-01-27T11:25:09.956Z,1.73
2024-01-27T11:27:48.035Z,1.65
2024-01-27T11:30:30.333Z,1.68
2024-01-27T11:33:06.042Z,1.55
2024-01-27T11:35:40.207Z,1.68
2024-01-27T11:38:15.434Z,1.75
2024-01-27T11:40:50.922Z,1.82
2024-01-27T11:43:27.014Z,1.86
2024-01-27T11:46:01.832Z,1.82
2024-01-27T11:48:44.610Z,1.71
2024-01-27T11:51:19.841Z,1.59
2024-01-27T11:53:54.161Z,1.73
2024-01-27T11:56:30.515Z,1.60
2024-01-27T11:59:06.250Z,1.57
2024-01-27T12:01:41.054Z,1.71
2024-01-27T12:04:15.992Z,1.84
2024-01-27T12:06:51.916Z,1.78
2024-01-27T12:09:26.308Z,1.80
2024-01-27T12:12:00.862Z,1.93
2024-01-27T12:14:42.416Z,1.77
2024-01-27T12:17:16.964Z,1.71
2024-01-27T12:19:53.981Z,1.76
2024-01-27T12:22:29.571Z,1.74
2024-01-27T12:25:11.035Z,1.80
2024-01-27T12:27:46.275Z,1.76
2024-01-27T12:30:23.651Z,1.82
2024-01-27T12:32:57.765Z,1.78
2024-01-27T12:35:31.975Z,1.90
2024-01-27T12:38:08.804Z,1.96
2024-01-27T12:40:42.993Z,1.75
2024-01-27T12:43:17.277Z,1.90
2024-01-27T12:45:52.786Z,1.89
2024-01-27T12:48:26.825Z,1.83
2024-01-27T12:54:04.027Z,1.79
2024-01-27T12:56:37.987Z,1.86
2024-01-27T12:59:12.492Z,1.63
2024-01-27T13:01:48.464Z,1.59
2024-01-27T13:04:22.509Z,1.68
2024-01-27T13:06:56.751Z,1.74
2024-01-27T13:09:30.564Z,1.87
2024-01-27T13:12:04.647Z,1.96
2024-01-27T13:14:38.356Z,1.81
2024-01-27T13:17:15.419Z,1.80
2024-01-27T13:19:49.219Z,1.96
2024-01-27T13:22:25.594Z,1.98
2024-01-27T13:25:04.791Z,1.93
2024-01-27T13:27:39.793Z,2.06
2024-01-27T13:30:14.237Z,2.19
2024-01-27T13:32:49.439Z,2.27
2024-01-27T13:35:23.211Z,2.19
2024-01-27T13:37:56.862Z,2.25
2024-01-27T13:40:30.590Z,2.30
2024-01-27T13:43:04.304Z,2.17
2024-01-27T13:45:38.005Z,2.20
2024-01-27T13:48:13.274Z,2.29
2024-01-27T13:50:47.288Z,2.14
2024-01-27T13:53:22.262Z,2.01
2024-01-27T13:55:56.371Z,1.86
2024-01-27T13:58:30.859Z,2.07
2024-01-27T14:01:04.894Z,2.05
2024-01-27T14:03:40.319Z,2.09
2024-01-27T14:06:14.724Z,1.92
2024-01-27T14:08:48.627Z,2.08
2024-01-27T14:11:23.145Z,2.14
2024-01-27T14:13:56.844Z,2.18
2024-01-27T14:16:30.772Z,2.00
2024-01-27T14:19:05.943Z,1.86
2024-01-27T14:21:40.097Z,1.95
2024-01-27T14:24:14.008Z,1.81
2024-01-27T14:26:47.698Z,1.86
2024-01-27T14:29:21.371Z,1.73
2024-01-27T14:31:55.059Z,1.81
2024-01-27T14:34:30.254Z,1.85
2024-01-27T14:37:04.076Z,1.77
2024-01-27T14:39:37.724Z,1.82
2024-01-27T14:42:11.442Z,1.65
2024-01-27T14:44:46.558Z,1.54
2024-01-27T14:47:21.406Z,1.58
2024-01-27T14:49:56.734Z,1.52
2024-01-27T14:52:30.655Z,1.68
2024-01-27T14:55:04.559Z,1.81
2024-01-27T14:57:38.811Z,1.84
2024-01-27T15:00:16.069Z,1.92
2024-01-27T15:02:50.137Z,2.00
2024-01-27T15:05:25.240Z,1.77
2024-01-27T15:07:58.918Z,1.80
2024-01-27T15:10:33.213Z,1.88
2024-01-27T15:13:07.229Z,1.90
2024-01-27T15:15:40.957Z,1.61
2024-01-27T15:18:14.912Z,1.71
2024-01-27T15:20:50.029Z,1.65
2024-01-27T15:23:26.398Z,1.64
2024-01-27T15:26:02.633Z,1.54
2024-01-27T15:28:36.377Z,1.36
2024-01-27T15:31:10.041Z,1.37
2024-01-27T15:33:44.017Z,1.49
2024-01-27T15:36:19.121Z,1.57
2024-01-27T15:38:52.851Z,1.56
2024-01-27T15:41:26.519Z,1.66
2024-01-27T15:44:01.895Z,1.61
2024-01-27T15:46:35.582Z,1.52
2024-01-27T15:49:09.438Z,1.59
2024-01-27T15:51:44.624Z,1.65
2024-01-27T15:54:19.453Z,1.42
2024-01-27T15:56:53.262Z,1.50
2024-01-27T15:59:27.084Z,1.56
2024-01-27T16:02:00.776Z,1.59
2024-01-27T16:04:35.335Z,1.59
2024-01-27T16:07:10.524Z,1.39
2024-01-27T16:09:48.093Z,1.50
2024-01-27T16:12:21.849Z,1.44
2024-01-27T16:14:55.657Z,1.34
2024-01-27T16:17:29.355Z,1.31
2024-01-27T16:20:04.651Z,1.37
2024-01-27T16:22:39.843Z,1.42
2024-01-27T16:25:13.557Z,1.55
2024-01-27T16:27:47.237Z,1.55
2024-01-27T16:30:21.027Z,1.66
2024-01-27T16:32:54.767Z,1.67
2024-01-27T16:35:28.599Z,1.62
2024-01-27T16:38:03.831Z,1.58
2024-01-27T16:40:37.618Z,1.63
2024-01-27T16:43:11.242Z,1.67
2024-01-27T16:45:44.976Z,1.63
2024-01-27T16:48:18.835Z,1.56
2024-01-27T16:50:52.614Z,1.55
2024-01-27T16:53:27.632Z,1.56
2024-01-27T16:56:01.874Z,1.58
2024-01-27T16:58:35.580Z,1.51
2024-01-27T17:01:09.337Z,1.59
2024-01-27T17:03:43.218Z,1.58
2024-01-27T17:06:18.527Z,1.62
2024-01-27T17:08:54.547Z,1.27
2024-01-27T17:11:28.204Z,1.37
2024-01-27T17:14:01.873Z,1.30
2024-01-27T17:16:35.540Z,1.28
2024-01-27T17:19:09.310Z,1.18
2024-01-27T17:21:43.385Z,1.20
2024-01-27T17:24:18.693Z,1.20
2024-01-27T17:26:52.596Z,1.24
2024-01-27T17:29:26.280Z,1.26
2024-01-27T17:31:59.975Z,1.20
2024-01-27T17:34:34.718Z,1.15
2024-01-27T17:37:08.520Z,1.15
2024-01-27T17:39:43.607Z,1.17
2024-01-27T17:42:18.194Z,1.07
2024-01-27T17:44:52.477Z,1.09
2024-01-27T17:47:26.183Z,1.11
2024-01-27T17:49:59.911Z,1.12
2024-01-27T17:52:37.408Z,1.13
2024-01-27T17:55:14.023Z,1.10
2024-01-27T17:57:47.798Z,1.15
2024-01-27T18:00:22.081Z,1.06
2024-01-27T18:02:56.109Z,1.07
2024-01-27T18:05:29.808Z,1.03
2024-01-27T18:08:04.047Z,1.01
2024-01-27T18:10:39.132Z,0.99
2024-01-27T18:13:13.061Z,0.90
2024-01-27T18:15:46.819Z,0.91
2024-01-27T18:18:20.806Z,1.00
2024-01-27T18:20:54.884Z,1.04
2024-01-27T18:23:28.616Z,0.99
2024-01-27T18:26:03.794Z,1.03
2024-01-27T18:28:37.472Z,1.02
2024-01-27T18:31:11.457Z,1.14
2024-01-27T18:33:47.165Z,1.16
2024-01-27T18:36:22.341Z,0.96
2024-01-27T18:38:56.429Z,0.99
2024-01-27T18:41:31.494Z,0.88
2024-01-27T18:44:05.316Z,0.85
2024-01-27T18:46:39.053Z,0.69
2024-01-27T18:49:15.082Z,0.83
2024-01-27T18:51:50.197Z,0.89
2024-01-27T18:54:24.560Z,0.93
2024-01-27T18:57:02.177Z,0.95
2024-01-27T18:59:35.911Z,0.99
2024-01-27T19:02:11.538Z,0.98
2024-01-27T19:04:45.605Z,1.01
2024-01-27T19:07:19.450Z,1.09
2024-01-27T19:09:53.144Z,1.13
2024-01-27T19:12:28.233Z,1.09
2024-01-27T19:15:02.717Z,0.96
2024-01-27T19:17:36.594Z,1.04
2024-01-27T19:20:12.713Z,0.97
2024-01-27T19:22:47.742Z,0.90
2024-01-27T19:25:21.554Z,0.95
2024-01-27T19:27:59.794Z,0.93
2024-01-27T19:30:34.830Z,0.84
2024-01-27T19:33:08.693Z,0.61
2024-01-27T19:35:42.411Z,0.43
2024-01-27T19:38:16.499Z,0.52
2024-01-27T19:41:02.466Z,0.60
2024-01-27T19:43:47.841Z,0.72
2024-01-27T19:46:21.673Z,0.73
2024-01-27T19:48:55.627Z,0.79
2024-01-27T19:51:30.358Z,0.85
2024-01-27T19:54:04.244Z,0.86
2024-01-27T19:56:37.965Z,0.77
2024-01-27T19:59:13.006Z,0.82
2024-01-27T20:01:46.629Z,0.85
2024-01-27T20:04:20.539Z,0.93
2024-01-27T20:06:57.082Z,0.92
2024-01-27T20:09:30.959Z,0.93
2024-01-27T20:12:05.093Z,0.64
2024-01-27T20:14:40.092Z,0.61
2024-01-27T20:17:14.029Z,0.76
2024-01-27T20:19:49.178Z,0.62
2024-01-27T20:22:22.954Z,0.69
2024-01-27T20:24:57.350Z,0.70
2024-01-27T20:27:32.238Z,0.62
2024-01-27T20:30:09.216Z,0.53
2024-01-27T20:32:43.186Z,0.63
2024-01-27T20:35:17.060Z,0.59
2024-01-27T20:37:51.306Z,0.67
2024-01-27T20:40:26.182Z,0.37
2024-01-27T20:43:01.957Z,0.31
2024-01-27T20:45:37.021Z,0.50
2024-01-27T20:48:14.555Z,0.46
2024-01-27T20:50:48.442Z,0.35
2024-01-27T20:53:22.301Z,0.42
2024-01-27T20:55:56.314Z,0.44
2024-01-27T20:58:30.204Z,0.54
2024-01-27T21:01:06.199Z,0.60
2024-01-27T21:03:40.500Z,0.67
2024-01-27T21:06:14.320Z,0.72
2024-01-27T21:08:47.997Z,0.64
2024-01-27T21:11:21.657Z,0.50
2024-01-27T21:13:55.856Z,0.43
2024-01-27T21:16:33.184Z,0.28
2024-01-27T21:19:07.749Z,0.45
2024-01-27T21:21:41.433Z,0.24
2024-01-27T21:24:15.931Z,0.24
2024-01-27T21:26:49.623Z,0.31
2024-01-27T21:29:23.330Z,0.30
2024-01-27T21:32:00.873Z,0.34
2024-01-27T21:34:34.657Z,0.35
2024-01-27T21:37:11.245Z,0.46
2024-01-27T21:39:45.282Z,0.50
2024-01-27T21:42:19.436Z,0.38
2024-01-27T21:44:53.424Z,0.36
2024-01-27T21:47:28.465Z,0.43
2024-01-27T21:50:02.372Z,0.31
2024-01-27T21:52:36.399Z,0.31
2024-01-27T21:55:10.366Z,0.43
2024-01-27T21:57:44.149Z,0.48
2024-01-27T22:00:18.841Z,0.43
2024-01-27T22:02:54.071Z,0.50
2024-01-27T22:05:28.188Z,0.36
2024-01-27T22:08:04.436Z,0.47
2024-01-27T22:10:38.364Z,0.43
2024-01-27T22:13:12.001Z,0.41
2024-01-27T22:15:45.725Z,0.46
2024-01-27T22:18:20.941Z,0.55
2024-01-27T22:20:55.774Z,0.53
2024-01-27T22:23:29.460Z,0.51
2024-01-27T22:26:03.464Z,0.47
2024-01-27T22:28:38.774Z,0.52
2024-01-27T22:31:12.425Z,0.55
2024-01-27T22:33:47.564Z,0.59
2024-01-27T22:36:21.321Z,0.59
2024-01-27T22:38:56.688Z,0.58
2024-01-27T22:41:31.436Z,0.64
2024-01-27T22:44:05.507Z,0.53
2024-01-27T22:46:39.816Z,0.46
2024-01-27T22:49:15.015Z,0.47
2024-01-27T22:51:49.977Z,0.34
2024-01-27T22:54:24.005Z,0.33
2024-01-27T22:56:57.667Z,0.38
2024-01-27T22:59:31.281Z,0.36
2024-01-27T23:02:05.088Z,0.27
2024-01-27T23:04:40.106Z,0.32
2024-01-27T23:07:14.081Z,0.34
2024-01-27T23:09:50.377Z,0.42
2024-01-27T23:12:25.131Z,0.48
2024-01-27T23:14:58.917Z,0.53
2024-01-27T23:17:33.008Z,0.61
2024-01-27T23:20:09.656Z,0.61
2024-01-27T23:22:43.665Z,0.44
2024-01-27T23:25:17.293Z,0.45
2024-01-27T23:27:50.996Z,0.45
2024-01-27T23:30:24.913Z,0.42
2024-01-27T23:32:58.662Z,0.55
2024-01-27T23:35:34.003Z,0.56
2024-01-27T23:38:08.582Z,0.62
2024-01-27T23:40:42.246Z,0.61
2024-01-27T23:43:15.925Z,0.58
2024-01-27T23:45:50.668Z,0.61
2024-01-27T23:48:24.756Z,0.55
2024-01-27T23:51:00.231Z,0.61
2024-01-27T23:53:34.233Z,0.62
2024-01-27T23:56:08.667Z,0.63
2024-01-27T23:58:42.304Z,0.66
